createdAt,value
2018-03-16T00:02:03.992Z,76.10
2018-03-16T00:04:10.305Z,739.17
2018-03-16T00:06:17.208Z,142.23
2018-03-16T00:08:23.506Z,60.00
2018-03-16T00:10:34.054Z,49.10
2018-03-16T00:12:40.598Z,44.20
2018-03-16T00:14:46.424Z,43.00
2018-03-16T00:16:52.034Z,87.70
2018-03-16T00:18:57.332Z,368.03
2018-03-16T00:21:02.730Z,529.17
2018-03-16T00:23:09.558Z,79.20
2018-03-16T00:25:15.236Z,50.07
2018-03-16T00:27:20.931Z,46.60
2018-03-16T00:29:26.574Z,100.53
2018-03-16T00:31:32.744Z,550.77
2018-03-16T00:33:38.693Z,56.03
2018-03-16T00:35:59.290Z,46.30
2018-03-16T00:38:05.172Z,43.43
2018-03-16T00:40:10.723Z,42.93
2018-03-16T00:42:16.477Z,351.27
2018-03-16T00:44:22.853Z,108.73
2018-03-16T00:46:32.978Z,51.07
2018-03-16T00:48:39.477Z,47.30
2018-03-16T00:50:45.872Z,469.00
2018-03-16T00:52:51.564Z,445.70
2018-03-16T00:54:57.679Z,454.60
2018-03-16T00:57:03.731Z,488.30
2018-03-16T00:59:09.407Z,192.97
2018-03-16T01:01:15.505Z,321.03
2018-03-16T01:03:21.322Z,88.27
2018-03-16T01:05:27.390Z,60.27
2018-03-16T01:07:33.525Z,166.40
2018-03-16T01:09:39.445Z,55.87
2018-03-16T01:11:45.176Z,47.83
2018-03-16T01:13:51.572Z,48.13
2018-03-16T01:15:57.448Z,195.83
2018-03-16T01:18:03.356Z,50.20
2018-03-16T01:20:09.795Z,149.13
2018-03-16T01:22:16.292Z,71.23
2018-03-16T01:24:22.228Z,47.40
2018-03-16T01:26:28.047Z,191.67
2018-03-16T01:28:34.334Z,233.97
2018-03-16T01:30:40.325Z,52.00
2018-03-16T01:32:46.211Z,45.67
2018-03-16T01:34:52.488Z,45.77
2018-03-16T01:36:58.394Z,41.83
2018-03-16T01:39:05.733Z,42.77
2018-03-16T01:41:11.946Z,40.57
2018-03-16T01:43:17.966Z,40.37
2018-03-16T01:45:24.006Z,41.30
2018-03-16T01:47:29.861Z,38.80
2018-03-16T01:49:36.137Z,37.77
2018-03-16T01:51:41.961Z,40.03
2018-03-16T01:53:47.924Z,38.00
2018-03-16T01:55:54.207Z,40.37
2018-03-16T01:58:00.129Z,39.47
2018-03-16T02:00:06.292Z,35.97
2018-03-16T02:02:12.107Z,35.80
2018-03-16T02:04:18.277Z,36.70
2018-03-16T02:06:24.314Z,36.00
2018-03-16T02:08:30.879Z,37.23
2018-03-16T02:10:37.075Z,37.87
2018-03-16T02:12:42.375Z,35.93
2018-03-16T02:14:48.386Z,39.00
2018-03-16T02:16:54.246Z,36.33
2018-03-16T02:18:59.841Z,34.00
2018-03-16T02:21:05.921Z,35.00
2018-03-16T02:23:11.776Z,35.73
2018-03-16T02:25:17.552Z,35.93
2018-03-16T02:27:23.807Z,35.13
2018-03-16T02:29:29.649Z,34.20
2018-03-16T02:31:35.714Z,35.00
2018-03-16T02:33:42.508Z,34.80
2018-03-16T02:35:48.949Z,33.90
2018-03-16T02:37:54.179Z,33.30
2018-03-16T02:40:00.296Z,35.27
2018-03-16T02:42:06.163Z,35.10
2018-03-16T02:44:12.330Z,35.70
2018-03-16T02:46:18.774Z,36.10
2018-03-16T02:48:24.004Z,34.43
2018-03-16T02:50:29.294Z,32.27
2018-03-16T02:52:34.609Z,34.83
2018-03-16T02:54:40.710Z,31.30
2018-03-16T02:56:46.815Z,31.60
2018-03-16T02:58:52.821Z,32.93
2018-03-16T03:00:58.422Z,33.10
2018-03-16T03:03:04.286Z,33.60
2018-03-16T03:05:10.141Z,33.07
2018-03-16T03:07:16.999Z,31.70
2018-03-16T03:09:22.884Z,32.60
2018-03-16T03:11:28.901Z,32.33
2018-03-16T03:13:35.066Z,33.43
2018-03-16T03:15:41.099Z,32.00
2018-03-16T03:17:46.894Z,32.73
2018-03-16T03:19:52.982Z,32.27
2018-03-16T03:21:59.422Z,33.47
2018-03-16T03:24:05.260Z,34.20
2018-03-16T03:26:11.272Z,33.70
2018-03-16T03:28:17.361Z,32.40
2018-03-16T03:30:23.523Z,31.53
2018-03-16T03:32:29.511Z,32.23
2018-03-16T03:34:35.107Z,33.10
2018-03-16T03:36:41.138Z,32.40
2018-03-16T03:38:47.194Z,33.23
2018-03-16T03:40:53.552Z,31.87
2018-03-16T03:43:00.127Z,33.00
2018-03-16T03:45:06.608Z,30.90
2018-03-16T03:47:12.374Z,33.03
2018-03-16T03:49:17.797Z,34.50
2018-03-16T03:51:22.937Z,34.07
2018-03-16T03:53:29.365Z,30.70
2018-03-16T03:55:35.214Z,34.90
2018-03-16T03:57:40.620Z,33.10
2018-03-16T03:59:46.511Z,32.77
2018-03-16T04:01:53.567Z,33.50
2018-03-16T04:03:59.275Z,30.93
2018-03-16T04:06:04.737Z,32.43
2018-03-16T04:08:10.800Z,31.97
2018-03-16T04:10:16.804Z,30.90
2018-03-16T04:12:22.498Z,33.00
2018-03-16T04:14:28.194Z,35.90
2018-03-16T04:16:33.638Z,32.47
2018-03-16T04:18:38.839Z,32.90
2018-03-16T04:20:44.467Z,30.47
2018-03-16T04:22:51.084Z,31.20
2018-03-16T04:24:56.440Z,32.27
2018-03-16T04:27:02.220Z,31.30
2018-03-16T04:29:08.329Z,33.97
2018-03-16T04:31:14.163Z,32.90
2018-03-16T04:33:19.435Z,33.30
2018-03-16T04:35:24.654Z,32.70
2018-03-16T04:37:30.310Z,31.57
2018-03-16T04:39:36.085Z,32.47
2018-03-16T04:41:42.052Z,33.00
2018-03-16T04:43:47.491Z,33.87
2018-03-16T04:45:54.341Z,32.87
2018-03-16T04:47:59.667Z,32.40
2018-03-16T04:50:05.132Z,33.57
2018-03-16T04:52:10.598Z,33.57
2018-03-16T04:54:17.010Z,34.77
2018-03-16T04:56:23.154Z,33.20
2018-03-16T04:58:28.427Z,32.50
2018-03-16T05:00:34.255Z,32.93
2018-03-16T05:02:39.951Z,32.47
2018-03-16T05:04:45.975Z,33.40
2018-03-16T05:06:52.367Z,35.27
2018-03-16T05:08:57.607Z,32.13
2018-03-16T05:11:03.333Z,35.40
2018-03-16T05:13:08.630Z,34.47
2018-03-16T05:15:15.116Z,34.60
2018-03-16T05:17:21.284Z,34.30
2018-03-16T05:19:27.687Z,36.30
2018-03-16T05:21:32.964Z,34.53
2018-03-16T05:23:38.239Z,33.37
2018-03-16T05:25:43.763Z,34.20
2018-03-16T05:27:49.659Z,35.83
2018-03-16T05:29:55.961Z,35.30
2018-03-16T05:32:01.246Z,32.97
2018-03-16T05:34:06.809Z,33.30
2018-03-16T05:36:12.816Z,35.50
2018-03-16T05:38:18.285Z,34.37
2018-03-16T05:40:23.913Z,34.43
2018-03-16T05:42:29.604Z,34.00
2018-03-16T05:44:35.540Z,34.97
2018-03-16T05:46:43.119Z,35.10
2018-03-16T05:48:48.524Z,33.60
2018-03-16T05:50:54.119Z,35.73
2018-03-16T05:52:59.781Z,36.20
2018-03-16T05:55:10.243Z,35.37
2018-03-16T05:57:15.948Z,36.47
2018-03-16T05:59:21.592Z,34.40
2018-03-16T06:01:27.220Z,33.50
2018-03-16T06:03:33.225Z,37.07
2018-03-16T06:05:38.776Z,35.83
2018-03-16T06:07:49.100Z,36.67
2018-03-16T06:09:54.912Z,36.30
2018-03-16T06:12:00.504Z,35.40
2018-03-16T06:14:05.836Z,35.30
2018-03-16T06:16:11.298Z,35.77
2018-03-16T06:18:16.955Z,36.40
2018-03-16T06:20:22.778Z,36.83
2018-03-16T06:22:28.053Z,34.80
2018-03-16T06:24:33.636Z,35.77
2018-03-16T06:26:38.887Z,35.27
2018-03-16T06:28:44.723Z,34.63
2018-03-16T06:30:50.305Z,36.43
2018-03-16T06:32:55.632Z,35.03
2018-03-16T06:35:00.961Z,37.13
2018-03-16T06:37:06.513Z,36.00
2018-03-16T06:39:11.976Z,34.90
2018-03-16T06:41:17.355Z,35.00
2018-03-16T06:43:22.933Z,36.20
2018-03-16T06:45:28.217Z,36.63
2018-03-16T06:47:33.476Z,35.57
2018-03-16T06:49:39.875Z,34.33
2018-03-16T06:51:45.735Z,37.17
2018-03-16T06:53:51.730Z,35.47
2018-03-16T06:56:01.180Z,36.43
2018-03-16T06:58:06.505Z,38.07
2018-03-16T07:00:12.440Z,36.77
2018-03-16T07:02:18.040Z,37.33
2018-03-16T07:04:23.749Z,35.50
2018-03-16T07:06:29.095Z,37.57
2018-03-16T07:08:34.833Z,35.77
2018-03-16T07:10:40.208Z,34.70
2018-03-16T07:12:45.572Z,34.97
2018-03-16T07:14:51.679Z,36.10
2018-03-16T07:16:56.956Z,39.07
2018-03-16T07:19:02.260Z,48.90
2018-03-16T07:21:09.072Z,192.07
2018-03-16T07:23:14.451Z,946.47
2018-03-16T07:25:19.778Z,905.57
2018-03-16T07:27:25.407Z,493.37
2018-03-16T07:29:30.760Z,151.87
2018-03-16T07:31:36.124Z,71.70
2018-03-16T07:33:41.734Z,57.70
2018-03-16T07:35:46.987Z,46.27
2018-03-16T07:37:52.328Z,556.73
2018-03-16T07:39:58.668Z,69.00
2018-03-16T07:42:04.608Z,988.40
2018-03-16T07:44:09.977Z,999.90
2018-03-16T07:46:17.092Z,798.03
2018-03-16T07:48:22.416Z,648.77
2018-03-16T07:50:29.153Z,686.10
2018-03-16T07:52:34.787Z,999.90
2018-03-16T07:54:40.813Z,999.90
2018-03-16T07:56:47.481Z,999.90
2018-03-16T07:58:52.767Z,794.20
2018-03-16T08:00:59.091Z,815.10
2018-03-16T08:03:04.912Z,631.27
2018-03-16T08:05:11.341Z,789.17
2018-03-16T08:07:17.185Z,880.93
2018-03-16T08:09:23.378Z,913.67
2018-03-16T08:11:29.158Z,787.30
2018-03-16T08:13:35.237Z,689.97
2018-03-16T08:15:41.348Z,999.90
2018-03-16T08:17:47.952Z,738.73
2018-03-16T08:19:53.285Z,999.90
2018-03-16T08:21:58.932Z,790.50
2018-03-16T08:24:04.425Z,898.80
2018-03-16T08:26:10.277Z,809.13
2018-03-16T08:28:16.135Z,999.90
2018-03-16T08:30:22.022Z,850.83
2018-03-16T08:32:27.399Z,999.90
2018-03-16T08:34:33.792Z,895.63
2018-03-16T08:36:39.803Z,808.37
2018-03-16T08:38:45.780Z,999.90
2018-03-16T08:40:51.359Z,678.70
2018-03-16T08:42:56.745Z,654.67
2018-03-16T08:45:02.023Z,485.47
2018-03-16T08:47:08.020Z,821.60
2018-03-16T08:49:13.955Z,419.33
2018-03-16T08:51:19.284Z,362.83
2018-03-16T08:53:25.438Z,524.93
2018-03-16T08:55:31.600Z,461.70
2018-03-16T08:57:36.947Z,999.90
2018-03-16T08:59:42.932Z,877.87
2018-03-16T09:01:49.083Z,561.60
2018-03-16T09:03:54.443Z,386.97
2018-03-16T09:06:00.163Z,869.40
2018-03-16T09:08:05.596Z,469.60
2018-03-16T09:10:11.019Z,999.90
2018-03-16T09:12:16.870Z,649.80
2018-03-16T09:14:22.680Z,307.70
2018-03-16T09:16:28.659Z,558.83
2018-03-16T09:18:34.429Z,459.43
2018-03-16T09:20:43.903Z,348.90
2018-03-16T09:22:49.273Z,325.80
2018-03-16T09:24:54.989Z,168.43
2018-03-16T09:27:00.343Z,100.13
2018-03-16T09:29:05.687Z,999.90
2018-03-16T09:31:12.040Z,912.53
2018-03-16T09:33:18.205Z,970.40
2018-03-16T09:35:23.593Z,800.23
2018-03-16T09:37:29.246Z,617.63
2018-03-16T09:39:34.560Z,335.27
2018-03-16T09:41:40.450Z,176.83
2018-03-16T09:43:46.492Z,110.30
2018-03-16T09:45:52.658Z,508.47
2018-03-16T09:47:58.648Z,540.33
2018-03-16T09:50:06.371Z,189.03
2018-03-16T09:52:11.776Z,104.40
2018-03-16T09:54:17.500Z,776.97
2018-03-16T09:56:24.327Z,783.37
2018-03-16T09:58:29.592Z,433.10
2018-03-16T10:00:34.880Z,168.50
2018-03-16T10:02:40.503Z,96.97
2018-03-16T10:04:45.786Z,339.00
2018-03-16T10:06:51.533Z,300.80
2018-03-16T10:08:57.046Z,444.83
2018-03-16T10:11:02.416Z,269.10
2018-03-16T10:13:07.688Z,544.43
2018-03-16T10:15:13.408Z,814.33
2018-03-16T10:18:43.304Z,909.47
2018-03-16T10:20:49.039Z,574.73
2018-03-16T10:22:54.333Z,332.90
2018-03-16T10:24:59.712Z,190.87
2018-03-16T10:27:06.291Z,117.20
2018-03-16T10:29:11.573Z,411.13
2018-03-16T10:31:17.195Z,122.83
2018-03-16T10:33:23.434Z,999.90
2018-03-16T10:35:29.324Z,210.67
2018-03-16T10:37:34.764Z,786.93
2018-03-16T10:39:40.491Z,147.43
2018-03-16T10:41:47.315Z,203.50
2018-03-16T10:43:53.124Z,139.30
2018-03-16T10:45:58.901Z,98.00
2018-03-16T10:48:04.354Z,60.87
2018-03-16T10:50:09.643Z,767.23
2018-03-16T10:52:15.284Z,391.20
2018-03-16T10:54:20.607Z,672.97
2018-03-16T10:56:26.064Z,697.23
2018-03-16T10:58:31.704Z,344.53
2018-03-16T11:00:41.792Z,156.57
2018-03-16T11:02:51.047Z,403.17
2018-03-16T11:05:00.562Z,148.67
2018-03-16T11:07:09.959Z,55.33
2018-03-16T11:09:15.300Z,256.33
2018-03-16T11:11:21.050Z,76.60
2018-03-16T11:13:26.415Z,999.90
2018-03-16T11:15:31.665Z,511.53
2018-03-16T11:17:37.317Z,161.97
2018-03-16T11:19:42.628Z,999.90
2018-03-16T11:21:48.360Z,678.97
2018-03-16T11:23:54.168Z,241.03
2018-03-16T11:25:59.546Z,79.10
2018-03-16T11:28:05.396Z,49.40
2018-03-16T11:30:11.583Z,35.00
2018-03-16T11:32:17.880Z,29.90
2018-03-16T11:34:23.306Z,26.37
2018-03-16T11:36:29.102Z,22.87
2018-03-16T11:38:34.533Z,20.87
2018-03-16T11:40:39.816Z,19.67
2018-03-16T11:42:46.077Z,539.00
2018-03-16T11:44:51.587Z,892.03
2018-03-16T11:46:56.877Z,746.20
2018-03-16T11:49:03.078Z,765.80
2018-03-16T11:51:08.349Z,680.43
2018-03-16T11:53:14.146Z,644.90
2018-03-16T11:55:19.816Z,665.20
2018-03-16T11:57:25.186Z,581.70
2018-03-16T11:59:30.455Z,563.10
2018-03-16T12:01:36.085Z,636.83
2018-03-16T12:03:41.385Z,736.33
2018-03-16T12:05:46.691Z,951.97
2018-03-16T12:07:52.395Z,705.57
2018-03-16T12:09:57.762Z,626.13
2018-03-16T12:12:04.084Z,486.10
2018-03-16T12:14:09.640Z,341.13
2018-03-16T12:16:17.165Z,165.83
2018-03-16T12:18:25.097Z,87.93
2018-03-16T12:20:31.301Z,790.00
2018-03-16T12:22:41.996Z,922.37
2018-03-16T12:24:52.514Z,684.90
2018-03-16T12:27:09.053Z,599.87
2018-03-16T12:29:14.656Z,997.57
2018-03-16T12:31:20.035Z,831.63
2018-03-16T12:33:25.726Z,834.27
2018-03-16T12:35:31.075Z,999.90
2018-03-16T12:37:37.225Z,999.90
2018-03-16T12:39:44.223Z,804.57
2018-03-16T12:41:49.456Z,750.53
2018-03-16T12:43:55.390Z,797.97
2018-03-16T12:46:01.584Z,606.33
2018-03-16T12:48:06.911Z,418.80
2018-03-16T12:50:12.256Z,237.73
2018-03-16T12:52:17.732Z,151.23
2018-03-16T12:54:23.110Z,62.73
2018-03-16T12:56:29.093Z,751.13
2018-03-16T12:58:35.263Z,707.43
2018-03-16T13:00:40.561Z,439.20
2018-03-16T13:02:46.051Z,208.97
2018-03-16T13:04:51.849Z,225.53
2018-03-16T13:06:57.093Z,403.23
2018-03-16T13:09:02.456Z,747.57
2018-03-16T13:11:08.115Z,747.17
2018-03-16T13:13:13.653Z,604.60
2018-03-16T13:15:19.105Z,320.93
2018-03-16T13:17:25.157Z,246.93
2018-03-16T13:19:30.876Z,99.87
2018-03-16T13:21:37.291Z,45.70
2018-03-16T13:24:06.182Z,201.80
2018-03-16T13:26:11.790Z,621.80
2018-03-16T13:28:17.731Z,808.90
2018-03-16T13:30:23.352Z,516.23
2018-03-16T13:32:29.083Z,308.77
2018-03-16T13:34:34.759Z,602.63
2018-03-16T13:36:40.500Z,491.13
2018-03-16T13:38:45.867Z,990.03
2018-03-16T13:40:51.167Z,675.43
2018-03-16T13:42:56.773Z,838.17
2018-03-16T13:45:02.650Z,956.83
2018-03-16T13:47:08.049Z,581.97
2018-03-16T13:49:13.727Z,455.60
2018-03-16T13:51:19.142Z,255.67
2018-03-16T13:53:24.539Z,117.57
2018-03-16T13:55:30.795Z,74.30
2018-03-16T13:57:36.151Z,57.27
2018-03-16T13:59:41.620Z,36.90
2018-03-16T14:01:47.257Z,31.60
2018-03-16T14:03:52.840Z,27.50
2018-03-16T14:06:18.183Z,24.57
2018-03-16T14:08:24.639Z,591.50
2018-03-16T14:10:29.937Z,222.17
2018-03-16T14:12:35.396Z,553.70
2018-03-16T14:14:41.008Z,590.77
2018-03-16T14:16:46.344Z,660.73
2018-03-16T14:18:51.611Z,790.47
2018-03-16T14:20:57.383Z,663.23
2018-03-16T14:23:02.732Z,545.23
2018-03-16T14:25:08.042Z,469.07
2018-03-16T14:27:13.729Z,323.07
2018-03-16T14:29:19.844Z,185.00
2018-03-16T14:31:25.461Z,85.23
2018-03-16T14:33:34.040Z,264.60
2018-03-16T14:37:03.317Z,169.83
2018-03-16T14:39:09.484Z,62.77
2018-03-16T14:41:15.852Z,43.10
2018-03-16T14:43:21.231Z,32.90
2018-03-16T14:45:26.926Z,714.10
2018-03-16T14:47:33.351Z,82.77
2018-03-16T14:49:38.655Z,88.33
2018-03-16T14:51:44.598Z,48.53
2018-03-16T14:53:49.950Z,256.47
2018-03-16T14:55:55.224Z,494.70
2018-03-16T14:58:00.870Z,105.70
2018-03-16T15:00:07.659Z,66.00
2018-03-16T15:02:13.455Z,54.67
2018-03-16T15:04:19.789Z,37.10
2018-03-16T15:06:25.145Z,28.13
2018-03-16T15:08:31.847Z,24.67
2018-03-16T15:10:37.783Z,23.80
2018-03-16T15:12:43.222Z,22.20
2018-03-16T15:14:48.624Z,19.60
2018-03-16T15:16:54.374Z,20.20
2018-03-16T15:18:59.826Z,18.47
2018-03-16T15:21:06.069Z,17.10
2018-03-16T15:23:11.820Z,18.63
2018-03-16T15:25:17.264Z,16.87
2018-03-16T15:27:22.550Z,17.40
2018-03-16T15:29:28.407Z,17.20
2018-03-16T15:31:33.992Z,16.47
2018-03-16T15:33:39.585Z,16.60
2018-03-16T15:35:46.232Z,17.87
2018-03-16T15:37:52.474Z,15.53
2018-03-16T15:39:57.745Z,16.83
2018-03-16T15:42:03.647Z,16.17
2018-03-16T15:44:09.216Z,17.00
2018-03-16T15:46:16.167Z,16.40
2018-03-16T15:48:21.858Z,15.67
2018-03-16T15:50:27.206Z,17.37
2018-03-16T15:52:32.600Z,15.93
2018-03-16T15:54:38.263Z,15.77
2018-03-16T15:56:43.621Z,15.70
2018-03-16T15:58:49.044Z,16.43
2018-03-16T16:00:55.063Z,16.33
2018-03-16T16:03:00.543Z,16.40
2018-03-16T16:05:07.116Z,15.80
2018-03-16T16:07:14.095Z,17.43
2018-03-16T16:09:19.596Z,16.70
2018-03-16T16:11:24.973Z,17.07
2018-03-16T16:13:30.893Z,17.27
2018-03-16T16:15:36.488Z,17.50
2018-03-16T16:17:41.869Z,17.27
2018-03-16T16:19:47.843Z,17.30
2018-03-16T16:21:53.985Z,17.07
2018-03-16T16:23:59.506Z,17.30
2018-03-16T16:26:05.042Z,16.83
2018-03-16T16:28:10.536Z,16.20
2018-03-16T16:30:16.160Z,16.73
2018-03-16T16:32:21.846Z,15.80
2018-03-16T16:34:27.259Z,16.40
2018-03-16T16:36:33.650Z,16.87
2018-03-16T16:38:45.999Z,15.77
2018-03-16T16:40:51.769Z,15.63
2018-03-16T16:42:57.120Z,16.03
2018-03-16T16:45:03.002Z,14.90
2018-03-16T16:47:08.437Z,15.80
2018-03-16T16:49:13.890Z,14.37
2018-03-16T16:51:19.557Z,14.50
2018-03-16T16:53:25.062Z,14.63
2018-03-16T16:55:30.483Z,13.17
2018-03-16T16:57:36.290Z,14.20
2018-03-16T16:59:41.684Z,12.90
2018-03-16T17:01:47.284Z,14.70
2018-03-16T17:03:53.295Z,12.70
2018-03-16T17:05:58.669Z,13.03
2018-03-16T17:08:04.212Z,13.10
2018-03-16T17:10:10.434Z,13.60
2018-03-16T17:12:15.960Z,12.93
2018-03-16T17:14:21.312Z,12.60
2018-03-16T17:16:26.945Z,12.40
2018-03-16T17:18:32.853Z,12.50
2018-03-16T17:20:38.222Z,13.60
2018-03-16T17:22:43.975Z,13.23
2018-03-16T17:24:49.513Z,12.10
2018-03-16T17:26:54.949Z,13.20
2018-03-16T17:29:00.646Z,12.93
2018-03-16T17:31:06.651Z,13.17
2018-03-16T17:33:12.338Z,11.80
2018-03-16T17:35:17.990Z,13.10
2018-03-16T17:37:23.396Z,12.97
2018-03-16T17:39:29.038Z,13.40
2018-03-16T17:41:37.067Z,13.90
2018-03-16T17:43:42.688Z,13.20
2018-03-16T17:45:48.310Z,13.37
2018-03-16T17:47:54.269Z,12.90
2018-03-16T17:50:00.858Z,13.37
2018-03-16T17:52:06.471Z,13.20
2018-03-16T17:54:12.183Z,11.67
2018-03-16T17:56:17.730Z,12.77
2018-03-16T17:58:23.121Z,12.53
2018-03-16T18:00:29.672Z,12.70
2018-03-16T18:02:35.112Z,13.10
2018-03-16T18:04:40.471Z,13.07
2018-03-16T18:06:46.121Z,13.23
2018-03-16T18:08:51.508Z,11.80
2018-03-16T18:10:56.794Z,12.43
2018-03-16T18:13:02.949Z,12.17
2018-03-16T18:15:08.780Z,13.07
2018-03-16T18:17:14.220Z,12.70
2018-03-16T18:19:20.221Z,12.53
2018-03-16T18:21:25.684Z,12.00
2018-03-16T18:23:31.265Z,11.97
2018-03-16T18:25:36.980Z,13.40
2018-03-16T18:27:42.294Z,13.27
2018-03-16T18:29:47.752Z,11.97
2018-03-16T18:31:53.344Z,12.73
2018-03-16T18:33:58.689Z,12.30
2018-03-16T18:36:04.087Z,12.87
2018-03-16T18:38:09.863Z,12.53
2018-03-16T18:40:15.276Z,11.77
2018-03-16T18:42:21.602Z,11.93
2018-03-16T18:44:27.317Z,11.90
2018-03-16T18:46:32.691Z,12.20
2018-03-16T18:48:38.262Z,12.00
2018-03-16T18:50:44.046Z,12.10
2018-03-16T18:52:49.611Z,12.20
2018-03-16T18:54:54.933Z,11.93
2018-03-16T18:57:00.626Z,11.90
2018-03-16T18:59:06.075Z,12.40
2018-03-16T19:01:11.920Z,10.90
2018-03-16T19:04:41.420Z,11.00
2018-03-16T19:06:46.844Z,11.30
2018-03-16T19:08:52.538Z,12.90
2018-03-16T19:10:58.781Z,11.60
2018-03-16T19:13:05.147Z,11.30
2018-03-16T19:15:12.301Z,11.27
2018-03-16T19:17:17.839Z,10.40
2018-03-16T19:19:23.195Z,10.73
2018-03-16T19:21:28.924Z,11.33
2018-03-16T19:23:34.197Z,11.53
2018-03-16T19:25:39.507Z,11.07
2018-03-16T19:27:45.215Z,11.50
2018-03-16T19:29:50.518Z,10.60
2018-03-16T19:31:55.941Z,10.20
2018-03-16T19:34:01.918Z,10.77
2018-03-16T19:36:08.327Z,10.70
2018-03-16T19:38:13.748Z,10.97
2018-03-16T19:40:19.766Z,10.87
2018-03-16T19:42:25.516Z,11.50
2018-03-16T19:44:30.834Z,10.77
2018-03-16T19:46:36.552Z,11.47
2018-03-16T19:48:41.900Z,11.00
2018-03-16T19:50:47.296Z,11.00
2018-03-16T19:52:52.948Z,10.87
2018-03-16T19:54:58.293Z,10.33
2018-03-16T19:57:03.803Z,10.77
2018-03-16T19:59:09.553Z,10.70
2018-03-16T20:01:15.285Z,10.53
2018-03-16T20:03:21.398Z,10.37
2018-03-16T20:05:27.058Z,11.20
2018-03-16T20:07:32.510Z,11.53
2018-03-16T20:09:37.988Z,10.37
2018-03-16T20:11:43.810Z,10.10
2018-03-16T20:13:49.609Z,9.90
2018-03-16T20:15:54.981Z,9.93
2018-03-16T20:18:00.589Z,9.97
2018-03-16T20:20:06.432Z,9.50
2018-03-16T20:22:11.736Z,9.87
2018-03-16T20:24:17.276Z,10.80
2018-03-16T20:26:23.954Z,10.00
2018-03-16T20:28:29.425Z,10.73
2018-03-16T20:30:35.161Z,10.10
2018-03-16T20:32:41.717Z,11.07
2018-03-16T20:34:47.866Z,10.63
2018-03-16T20:36:53.856Z,9.67
2018-03-16T20:38:59.268Z,9.80
2018-03-16T20:41:05.046Z,10.93
2018-03-16T20:43:10.957Z,9.80
2018-03-16T20:45:16.316Z,10.93
2018-03-16T20:47:21.644Z,9.83
2018-03-16T20:49:27.924Z,10.50
2018-03-16T20:51:33.459Z,10.80
2018-03-16T20:53:38.813Z,9.87
2018-03-16T20:55:44.356Z,9.87
2018-03-16T20:57:49.927Z,10.20
2018-03-16T20:59:55.189Z,9.47
2018-03-16T21:02:01.055Z,9.10
2018-03-16T21:04:06.438Z,9.27
2018-03-16T21:06:12.664Z,8.90
2018-03-16T21:08:18.232Z,10.27
2018-03-16T21:10:23.575Z,9.83
2018-03-16T21:12:28.853Z,9.63
2018-03-16T21:14:34.510Z,9.87
2018-03-16T21:16:39.881Z,9.27
2018-03-16T21:18:45.327Z,9.60
2018-03-16T21:20:51.543Z,9.73
2018-03-16T21:22:56.840Z,9.70
2018-03-16T21:25:02.226Z,9.17
2018-03-16T21:27:08.165Z,9.40
2018-03-16T21:29:13.421Z,9.60
2018-03-16T21:31:19.933Z,10.47
2018-03-16T21:33:25.610Z,9.60
2018-03-16T21:35:31.171Z,9.97
2018-03-16T21:37:36.889Z,9.87
2018-03-16T21:39:42.689Z,11.33
2018-03-16T21:41:48.537Z,10.17
2018-03-16T21:43:53.910Z,9.83
2018-03-16T21:45:59.826Z,10.40
2018-03-16T21:48:05.298Z,11.00
2018-03-16T21:50:10.747Z,11.00
2018-03-16T21:52:16.537Z,11.20
2018-03-16T21:54:22.175Z,11.17
2018-03-16T21:56:27.648Z,10.20
2018-03-16T21:58:33.510Z,9.97
2018-03-16T22:00:39.086Z,10.77
2018-03-16T22:02:44.824Z,11.10
2018-03-16T22:04:50.521Z,10.83
2018-03-16T22:06:56.025Z,10.47
2018-03-16T22:09:01.560Z,11.13
2018-03-16T22:11:07.281Z,10.30
2018-03-16T22:13:16.549Z,11.37
2018-03-16T22:15:22.087Z,11.10
2018-03-16T22:17:28.024Z,10.40
2018-03-16T22:19:33.809Z,11.03
2018-03-16T22:21:39.271Z,10.97
2018-03-16T22:23:45.037Z,9.77
2018-03-16T22:25:50.627Z,10.40
2018-03-16T22:27:56.054Z,10.40
2018-03-16T22:30:01.798Z,10.60
2018-03-16T22:32:07.207Z,10.33
2018-03-16T22:34:12.489Z,11.30
2018-03-16T22:36:18.800Z,10.30
2018-03-16T22:38:24.300Z,10.20
2018-03-16T22:42:40.086Z,11.00
2018-03-16T22:44:45.472Z,10.70
2018-03-16T22:46:50.977Z,10.90
2018-03-16T22:48:56.632Z,10.10
2018-03-16T22:51:01.910Z,10.63
2018-03-16T22:53:07.964Z,10.17
2018-03-16T22:55:13.572Z,10.40
2018-03-16T22:57:19.124Z,9.90
2018-03-16T22:59:24.543Z,9.43
2018-03-16T23:01:32.125Z,10.70
2018-03-16T23:03:38.129Z,10.97
2018-03-16T23:05:44.112Z,9.50
2018-03-16T23:07:50.079Z,9.93
2018-03-16T23:10:03.192Z,10.20
2018-03-16T23:12:08.650Z,10.83
2018-03-16T23:14:14.723Z,10.17
2018-03-16T23:16:20.118Z,11.50
2018-03-16T23:18:25.464Z,10.30
2018-03-16T23:20:31.387Z,11.10
2018-03-16T23:22:37.864Z,10.87
2018-03-16T23:24:43.112Z,10.53
2018-03-16T23:26:48.906Z,10.33
2018-03-16T23:28:54.402Z,9.90
2018-03-16T23:30:59.809Z,9.90
2018-03-16T23:33:06.795Z,10.30
2018-03-16T23:35:12.984Z,10.77
2018-03-16T23:37:18.607Z,10.37
2018-03-16T23:39:24.850Z,9.43
2018-03-16T23:41:30.251Z,9.70
2018-03-16T23:43:38.858Z,10.13
2018-03-16T23:45:44.539Z,10.00
2018-03-16T23:47:50.032Z,11.13
2018-03-16T23:49:55.372Z,9.77
2018-03-16T23:52:05.948Z,10.00
2018-03-16T23:54:11.557Z,10.00
2018-03-16T23:56:17.112Z,10.77
2018-03-16T23:58:22.728Z,10.10
